Terminal Aerodrome Forecast
Issued by NWS Sterling, VA

Home | Current Version | Previous Version | Text Only | Print | Product List | Glossary On
Versions: 1 2 3 4 5 6 7 8 9 10 11 12 13 14 15 16 17 18 19 20 21 22 23 24 25 26 27
000
FTUS41 KLWX 072333
TAFIAD
TAF
KIAD 072333Z 0800/0906 19006KT P6SM SCT040
     FM080800 23004KT P6SM BKN080
     FM081600 23007KT P6SM -SHRA BKN070
     FM081900 24009KT P6SM -SHRA VCTS OVC040CB
     FM090100 25005KT P6SM OVC035=

USA.gov is the U.S. government's official web portal to all federal, state and local government web resources and services.